Time;durP1;ratioP1;P1;durP2;ratioP2;P2;SDS_P1;SDS_P2;PMS_P1;PMS_P2;Temp;Humidity;BMP_temperature;BMP_pressure;BME280_temperature;BME280_humidity;BME280_pressure;Samples;Min_cycle;Max_cycle;Signal;HPM_P1;HPM_P2
2022/07/21 00:01:49;;;;;;;10.57;8.33;;;21.10;99.90;;;;;;5064132;28;20234;-46
2022/07/21 00:04:17;;;;;;;10.00;8.60;;;21.10;99.90;;;;;;5053530;28;20199;-48
2022/07/21 00:06:44;;;;;;;12.27;9.40;;;21.00;99.90;;;;;;5056026;28;20218;-48
2022/07/21 00:09:12;;;;;;;10.47;8.90;;;21.00;99.90;;;;;;5064211;28;20210;-50
2022/07/21 00:11:39;;;;;;;11.63;8.97;;;20.90;99.90;;;;;;5062333;28;20222;-47
2022/07/21 00:14:07;;;;;;;13.63;9.03;;;21.00;99.90;;;;;;5064547;28;20202;-47
2022/07/21 00:16:35;;;;;;;11.53;9.20;;;20.90;99.90;;;;;;5061206;28;20218;-50
2022/07/21 00:19:04;;;;;;;10.87;9.37;;;20.80;99.90;;;;;;5064785;28;20651;-50
2022/07/21 00:21:30;;;;;;;10.67;9.37;;;20.80;99.90;;;;;;5043079;28;20902;-44
2022/07/21 00:23:57;;;;;;;12.70;9.63;;;20.80;99.90;;;;;;5064402;28;20194;-45
2022/07/21 00:26:24;;;;;;;13.87;9.33;;;20.70;99.90;;;;;;5061020;28;20722;-46
2022/07/21 00:28:51;;;;;;;16.23;9.30;;;20.60;99.90;;;;;;5064654;28;20205;-45
2022/07/21 00:31:18;;;;;;;10.10;9.00;;;20.50;99.90;;;;;;5062123;28;20252;-50
2022/07/21 00:33:45;;;;;;;17.33;9.33;;;20.50;99.90;;;;;;5062713;28;20191;-45
2022/07/21 00:36:13;;;;;;;12.43;9.53;;;20.50;99.90;;;;;;5045548;28;20676;-47
2022/07/21 00:38:39;;;;;;;9.73;8.80;;;20.40;99.90;;;;;;5061625;28;20927;-48
2022/07/21 00:41:06;;;;;;;12.07;9.30;;;20.40;99.90;;;;;;5064573;28;20296;-47
2022/07/21 00:43:33;;;;;;;11.27;9.33;;;20.40;99.90;;;;;;5059971;28;20191;-48
2022/07/21 00:46:00;;;;;;;13.70;9.07;;;20.40;99.90;;;;;;5064326;28;20231;-45
2022/07/21 00:48:27;;;;;;;11.40;9.60;;;20.30;99.90;;;;;;5059684;28;20198;-48
2022/07/21 00:50:54;;;;;;;12.83;9.63;;;20.30;99.90;;;;;;5045745;28;20205;-46
2022/07/21 00:53:22;;;;;;;11.50;9.37;;;20.30;99.90;;;;;;5060756;28;20692;-48
2022/07/21 00:55:49;;;;;;;11.70;9.00;;;20.20;99.90;;;;;;5063594;28;20219;-45
2022/07/21 00:58:16;;;;;;;11.13;9.70;;;20.20;99.90;;;;;;5062117;28;20219;-49
2022/07/21 01:00:43;;;;;;;11.60;9.17;;;20.20;99.90;;;;;;5062116;28;20347;-45
2022/07/21 01:03:10;;;;;;;10.20;8.53;;;20.10;99.90;;;;;;5056857;28;20210;-48
2022/07/21 01:05:37;;;;;;;14.73;9.43;;;20.10;99.90;;;;;;5036428;28;24814;-44
2022/07/21 01:08:05;;;;;;;13.37;9.73;;;20.10;99.90;;;;;;5063680;28;20205;-45
2022/07/21 01:10:33;;;;;;;12.40;9.73;;;20.00;99.90;;;;;;5059671;28;20248;-47
2022/07/21 01:13:00;;;;;;;11.93;9.93;;;20.00;99.90;;;;;;5063659;28;20206;-47
2022/07/21 01:15:27;;;;;;;13.47;9.90;;;20.00;99.90;;;;;;5059318;28;20241;-51
2022/07/21 01:17:54;;;;;;;13.13;9.60;;;19.90;99.90;;;;;;5064002;28;20222;-45
2022/07/21 01:20:24;;;;;;;12.13;9.83;;;19.90;99.90;;;;;;5059977;28;20202;-47
2022/07/21 01:22:55;;;;;;;10.77;8.90;;;19.80;99.90;;;;;;5045014;28;20839;-53
2022/07/21 01:25:23;;;;;;;15.40;9.57;;;19.80;99.90;;;;;;5054606;28;20210;-51
2022/07/21 01:27:50;;;;;;;14.63;9.33;;;19.80;99.90;;;;;;5061683;28;20198;-49
2022/07/21 01:30:18;;;;;;;10.53;9.10;;;19.80;99.90;;;;;;5055069;28;20207;-48
2022/07/21 01:32:44;;;;;;;11.90;9.57;;;19.80;99.90;;;;;;5055183;28;20203;-45
2022/07/21 01:35:14;;;;;;;14.20;9.47;;;19.70;99.90;;;;;;5061833;28;20202;-49
2022/07/21 01:37:45;;;;;;;13.60;9.80;;;19.70;99.90;;;;;;5043603;28;20965;-45
2022/07/21 01:43:00;;;;;;;14.83;9.33;;;19.60;99.90;;;;;;5063255;28;20202;-47
2022/07/21 01:45:28;;;;;;;11.57;10.47;;;19.60;99.90;;;;;;5058710;28;20226;-47
2022/07/21 01:47:55;;;;;;;11.13;9.97;;;19.50;99.90;;;;;;5063394;28;20251;-47
2022/07/21 01:50:26;;;;;;;14.83;10.57;;;19.50;99.90;;;;;;5060024;28;20217;-47
2022/07/21 01:52:55;;;;;;;15.57;10.77;;;19.50;99.90;;;;;;5045496;28;20202;-47
2022/07/21 01:55:24;;;;;;;14.90;11.03;;;19.40;99.90;;;;;;5059791;28;20305;-50
2022/07/21 01:57:51;;;;;;;18.50;11.63;;;19.30;99.90;;;;;;5062865;28;20232;-46
2022/07/21 02:00:19;;;;;;;15.60;10.97;;;19.20;99.90;;;;;;5060803;28;20206;-49
2022/07/21 02:02:46;;;;;;;17.33;12.37;;;19.10;99.90;;;;;;5061989;28;20252;-49
2022/07/21 02:05:14;;;;;;;14.80;11.63;;;19.10;99.90;;;;;;5061499;28;20281;-48
2022/07/21 02:07:40;;;;;;;16.57;11.90;;;19.00;99.90;;;;;;5059745;28;20193;-51
2022/07/21 02:10:08;;;;;;;17.63;10.83;;;19.00;99.90;;;;;;5045609;28;20596;-49
2022/07/21 02:12:36;;;;;;;20.90;11.17;;;19.00;99.90;;;;;;5059492;28;20194;-51
2022/07/21 02:15:04;;;;;;;15.27;10.37;;;19.00;99.90;;;;;;5062517;28;20587;-49
2022/07/21 02:17:31;;;;;;;19.77;11.03;;;19.00;99.90;;;;;;5059022;28;20216;-50
2022/07/21 02:19:58;;;;;;;16.57;11.40;;;19.00;99.90;;;;;;5063161;28;20566;-52
2022/07/21 02:22:24;;;;;;;17.10;11.13;;;19.00;99.90;;;;;;5058940;28;20198;-49
2022/07/21 02:24:51;;;;;;;13.60;10.23;;;19.00;99.90;;;;;;5044798;28;20206;-51
2022/07/21 02:27:18;;;;;;;14.23;10.77;;;19.00;99.90;;;;;;5060633;28;20301;-50
2022/07/21 02:29:46;;;;;;;13.87;11.17;;;19.00;99.90;;;;;;5061432;28;20194;-46
2022/07/21 02:32:12;;;;;;;18.70;11.20;;;18.90;99.90;;;;;;5061880;28;20202;-52
2022/07/21 02:34:39;;;;;;;14.40;10.83;;;18.90;99.90;;;;;;5059901;28;20190;-51
2022/07/21 02:37:06;;;;;;;18.37;11.53;;;18.90;99.90;;;;;;5061950;28;20223;-50
2022/07/21 02:39:33;;;;;;;13.87;10.40;;;18.90;99.90;;;;;;5041328;28;20205;-47
2022/07/21 02:41:59;;;;;;;19.80;11.17;;;18.90;99.90;;;;;;5062015;28;20221;-45
2022/07/21 02:44:26;;;;;;;18.27;11.20;;;18.90;99.90;;;;;;5058105;28;20289;-48
2022/07/21 02:46:55;;;;;;;18.67;11.50;;;18.90;99.90;;;;;;5062622;28;20214;-46
2022/07/21 02:49:21;;;;;;;17.27;12.53;;;18.80;99.90;;;;;;5059780;28;20199;-47
2022/07/21 02:51:48;;;;;;;17.30;11.47;;;18.80;99.90;;;;;;5061688;28;20301;-49
2022/07/21 02:54:15;;;;;;;18.43;13.00;;;18.80;99.90;;;;;;5053016;28;20265;-48
2022/07/21 02:56:42;;;;;;;16.50;11.80;;;18.80;99.90;;;;;;5052431;28;20218;-45
2022/07/21 02:59:09;;;;;;;19.03;12.93;;;18.80;99.90;;;;;;5062197;28;20229;-45
2022/07/21 03:01:36;;;;;;;17.03;12.30;;;18.70;99.90;;;;;;5059431;28;20449;-46
2022/07/21 03:04:04;;;;;;;20.20;13.70;;;18.70;99.90;;;;;;5062358;28;20260;-48
2022/07/21 03:06:31;;;;;;;16.30;12.83;;;18.70;99.90;;;;;;5057897;28;20222;-47
2022/07/21 03:08:58;;;;;;;19.63;12.93;;;18.70;99.90;;;;;;5062475;28;20736;-45
2022/07/21 03:11:25;;;;;;;24.40;14.10;;;18.70;99.90;;;;;;5041231;28;20206;-48
2022/07/21 03:13:52;;;;;;;24.23;13.27;;;18.70;99.90;;;;;;5064486;28;20209;-47
2022/07/21 03:16:19;;;;;;;18.27;13.00;;;18.70;99.90;;;;;;5062356;28;20214;-51
2022/07/21 03:18:46;;;;;;;17.37;13.43;;;18.60;99.90;;;;;;5062595;28;20225;-47
2022/07/21 03:21:14;;;;;;;23.00;13.37;;;18.60;99.90;;;;;;5058283;28;20205;-45
2022/07/21 03:23:45;;;;;;;16.50;13.57;;;18.70;99.90;;;;;;5056827;28;20206;-45
2022/07/21 03:26:12;;;;;;;21.40;14.30;;;18.60;99.90;;;;;;5041704;28;20218;-47
2022/07/21 03:28:39;;;;;;;23.10;13.77;;;18.60;99.90;;;;;;5063372;28;20856;-46
2022/07/21 03:31:06;;;;;;;19.90;14.17;;;18.60;99.90;;;;;;5059240;28;20281;-44
2022/07/21 03:33:33;;;;;;;23.00;13.77;;;18.60;99.90;;;;;;5054821;28;20198;-51
2022/07/21 03:36:00;;;;;;;19.47;14.10;;;18.60;99.90;;;;;;5065942;28;20238;-48
2022/07/21 03:38:28;;;;;;;25.83;14.80;;;18.60;99.90;;;;;;5061158;28;20214;-45
2022/07/21 03:40:55;;;;;;;22.67;13.50;;;18.60;99.90;;;;;;5048512;28;20218;-45
2022/07/21 03:43:22;;;;;;;18.73;13.03;;;18.60;99.90;;;;;;5061830;28;20194;-51
2022/07/21 03:45:49;;;;;;;18.23;13.07;;;18.60;99.90;;;;;;5064807;28;20234;-50
2022/07/21 03:48:16;;;;;;;21.73;13.63;;;18.50;99.90;;;;;;5063338;28;20191;-49
2022/07/21 03:50:43;;;;;;;14.87;12.77;;;18.60;99.90;;;;;;5063799;28;20278;-47
2022/07/21 03:53:10;;;;;;;17.20;11.63;;;18.60;99.90;;;;;;5064259;28;20251;-46
2022/07/21 03:55:38;;;;;;;16.50;11.03;;;18.60;99.90;;;;;;5062442;28;20303;-49
2022/07/21 03:58:06;;;;;;;16.27;10.67;;;18.60;99.90;;;;;;5047775;28;20256;-48
2022/07/21 04:00:36;;;;;;;12.90;9.40;;;18.60;99.90;;;;;;5060386;28;20218;-47
2022/07/21 04:03:03;;;;;;;14.77;9.97;;;18.60;99.90;;;;;;5064507;28;20565;-49
2022/07/21 04:05:31;;;;;;;14.67;9.17;;;18.70;99.90;;;;;;5061021;28;20957;-47
2022/07/21 04:07:58;;;;;;;14.80;8.30;;;18.70;99.90;;;;;;5064806;28;20226;-47
2022/07/21 04:10:28;;;;;;;18.27;9.17;;;18.70;99.90;;;;;;5061221;28;20256;-49
2022/07/21 04:12:58;;;;;;;13.13;8.50;;;18.80;99.90;;;;;;5047883;28;20215;-48
2022/07/21 04:15:26;;;;;;;14.97;8.53;;;18.80;99.90;;;;;;5060210;28;20214;-50
2022/07/21 04:17:53;;;;;;;13.40;7.80;;;18.90;99.90;;;;;;5064912;28;20218;-47
2022/07/21 04:20:20;;;;;;;17.43;7.67;;;18.90;99.90;;;;;;5062222;28;20232;-48
2022/07/21 04:22:48;;;;;;;13.03;7.47;;;18.90;99.90;;;;;;5063371;28;20202;-48
2022/07/21 04:25:17;;;;;;;13.77;7.40;;;19.00;99.90;;;;;;5062406;28;20205;-48
2022/07/21 04:27:46;;;;;;;11.33;6.83;;;19.00;99.90;;;;;;5045690;28;20213;-49
2022/07/21 04:30:16;;;;;;;10.27;6.60;;;19.00;99.90;;;;;;5062859;28;20195;-47
2022/07/21 04:32:43;;;;;;;9.87;6.50;;;19.10;99.90;;;;;;5059890;28;20195;-49
2022/07/21 04:35:11;;;;;;;11.13;6.03;;;19.10;99.90;;;;;;5056807;28;20203;-45
2022/07/21 04:37:38;;;;;;;12.80;6.23;;;19.10;99.90;;;;;;5054977;28;20202;-49
2022/07/21 04:40:08;;;;;;;13.33;6.47;;;19.20;99.90;;;;;;5057053;28;20289;-48
2022/07/21 04:42:35;;;;;;;12.73;6.17;;;19.30;99.90;;;;;;5040183;28;20203;-46
2022/07/21 04:45:02;;;;;;;10.43;5.67;;;19.30;99.90;;;;;;5056959;28;20201;-48
2022/07/21 04:47:30;;;;;;;12.77;6.00;;;19.40;99.90;;;;;;5053790;28;20801;-48
2022/07/21 04:49:57;;;;;;;13.60;5.83;;;19.40;99.90;;;;;;5057795;28;20202;-46
2022/07/21 04:52:24;;;;;;;13.90;7.20;;;19.50;99.90;;;;;;5053870;28;20221;-47
2022/07/21 04:54:51;;;;;;;8.70;5.83;;;19.50;99.90;;;;;;5063498;28;20203;-49
2022/07/21 04:57:18;;;;;;;16.00;5.87;;;19.60;99.90;;;;;;5061685;28;20339;-51
2022/07/21 04:59:45;;;;;;;11.40;5.23;;;19.60;99.90;;;;;;5045079;28;20213;-44
2022/07/21 05:02:11;;;;;;;13.30;5.53;;;19.60;99.90;;;;;;5062959;28;20199;-50
2022/07/21 05:04:40;;;;;;;10.53;5.30;;;19.70;99.90;;;;;;5060885;28;20195;-51
2022/07/21 05:07:07;;;;;;;9.97;6.03;;;19.70;99.90;;;;;;5063596;28;20219;-46
2022/07/21 05:09:34;;;;;;;9.83;5.43;;;19.70;99.90;;;;;;5060174;28;20239;-45
2022/07/21 05:12:01;;;;;;;10.37;4.63;;;19.80;99.90;;;;;;5062927;28;20194;-45
2022/07/21 05:14:28;;;;;;;13.13;5.20;;;19.80;99.90;;;;;;5042093;28;20203;-49
2022/07/21 05:16:55;;;;;;;11.43;5.20;;;19.80;99.90;;;;;;5063328;28;20592;-46
2022/07/21 05:19:21;;;;;;;11.07;5.23;;;19.90;99.90;;;;;;5060578;28;20229;-46
2022/07/21 05:21:50;;;;;;;8.70;4.60;;;19.90;99.90;;;;;;5062556;28;20194;-49
2022/07/21 05:24:17;;;;;;;7.77;4.10;;;20.00;99.90;;;;;;5060946;28;20210;-49
2022/07/21 05:26:44;;;;;;;11.20;4.47;;;20.00;99.90;;;;;;5061775;28;20207;-45
2022/07/21 05:29:10;;;;;;;9.67;3.93;;;20.00;99.90;;;;;;5058460;28;20281;-50
2022/07/21 05:31:37;;;;;;;8.83;4.00;;;20.00;99.90;;;;;;5049226;28;20303;-46
2022/07/21 05:34:04;;;;;;;6.33;3.90;;;20.00;99.90;;;;;;5063036;28;20209;-48
2022/07/21 05:36:31;;;;;;;14.03;4.30;;;20.10;99.90;;;;;;5058507;28;20241;-48
2022/07/21 05:38:59;;;;;;;9.07;4.13;;;20.10;99.90;;;;;;5063064;28;20348;-46
2022/07/21 05:41:26;;;;;;;8.83;3.87;;;20.10;99.90;;;;;;5059287;28;20211;-51
2022/07/21 05:43:53;;;;;;;8.57;4.23;;;20.20;99.90;;;;;;5062767;28;20195;-47
2022/07/21 05:46:19;;;;;;;9.23;4.03;;;20.20;99.90;;;;;;5043359;28;20736;-51
2022/07/21 05:48:47;;;;;;;8.50;3.90;;;20.20;99.90;;;;;;5062079;28;20203;-50
2022/07/21 05:51:14;;;;;;;7.93;3.40;;;20.20;99.90;;;;;;5061970;28;20206;-48
2022/07/21 05:53:41;;;;;;;6.87;3.93;;;20.20;99.90;;;;;;5060204;28;20247;-46
2022/07/21 05:56:09;;;;;;;10.60;4.43;;;20.20;99.90;;;;;;5063173;28;20332;-47
2022/07/21 05:58:36;;;;;;;8.23;4.17;;;20.20;99.90;;;;;;5059909;28;20210;-46
2022/07/21 06:01:09;;;;;;;8.73;3.57;;;20.20;99.90;;;;;;5046518;28;20214;-46
2022/07/21 06:03:37;;;;;;;6.50;3.90;;;20.20;99.90;;;;;;5059152;28;20270;-48
2022/07/21 06:06:04;;;;;;;6.40;3.80;;;20.20;99.90;;;;;;5062037;28;20218;-47
2022/07/21 06:08:31;;;;;;;8.50;3.60;;;20.30;99.90;;;;;;5058735;28;20305;-47
2022/07/21 06:10:58;;;;;;;8.80;3.87;;;20.30;99.90;;;;;;5063099;28;20198;-45
2022/07/21 06:13:26;;;;;;;4.93;3.63;;;20.30;99.90;;;;;;5058777;28;20212;-50
2022/07/21 06:15:54;;;;;;;8.97;4.03;;;20.40;99.90;;;;;;5063156;28;20268;-45
2022/07/21 06:18:21;;;;;;;7.63;3.77;;;20.40;99.90;;;;;;5042361;28;20587;-49
2022/07/21 06:20:47;;;;;;;7.17;4.37;;;20.40;99.90;;;;;;5062028;28;20198;-60
2022/07/21 06:23:15;;;;;;;5.70;3.67;;;20.40;99.90;;;;;;5060673;28;20203;-60
2022/07/21 06:25:42;;;;;;;10.43;4.03;;;20.40;99.90;;;;;;5061006;28;20322;-59
2022/07/21 06:28:09;;;;;;;11.93;4.60;;;20.40;99.90;;;;;;5062543;28;20210;-59
2022/07/21 06:30:38;;;;;;;8.87;4.80;;;20.40;99.90;;;;;;5059805;28;20187;-60
2022/07/21 06:33:05;;;;;;;6.37;4.57;;;20.40;99.90;;;;;;5043818;28;20206;-60
2022/07/21 06:35:32;;;;;;;8.10;4.50;;;20.40;99.90;;;;;;5058012;28;20215;-60
2022/07/21 06:37:59;;;;;;;7.10;4.50;;;20.40;99.90;;;;;;5061805;28;20273;-60
2022/07/21 06:40:26;;;;;;;9.13;4.40;;;20.30;99.90;;;;;;5058384;28;20226;-59
2022/07/21 06:42:53;;;;;;;6.63;4.20;;;20.30;99.90;;;;;;5062608;28;20199;-61
2022/07/21 06:45:20;;;;;;;6.90;5.13;;;20.20;99.90;;;;;;5059520;28;20229;-61
2022/07/21 06:47:48;;;;;;;7.60;5.00;;;20.20;99.90;;;;;;5064609;28;20213;-60
2022/07/21 06:50:15;;;;;;;14.03;5.40;;;20.20;99.90;;;;;;5047276;28;20199;-60
2022/07/21 06:52:42;;;;;;;9.47;5.73;;;20.10;99.90;;;;;;5064126;28;20187;-60
2022/07/21 06:55:09;;;;;;;7.27;4.40;;;20.00;99.90;;;;;;5065743;28;20671;-59
2022/07/21 06:57:37;;;;;;;12.90;5.73;;;20.00;99.90;;;;;;5063186;28;20194;-60
2022/07/21 07:00:06;;;;;;;9.97;5.37;;;19.90;99.90;;;;;;5066164;28;20706;-60
2022/07/21 07:02:33;;;;;;;11.03;5.60;;;19.90;99.90;;;;;;5062598;28;20198;-61
2022/07/21 07:05:01;;;;;;;9.07;5.23;;;19.90;99.90;;;;;;5048683;28;20549;-61
2022/07/21 07:07:29;;;;;;;10.60;5.60;;;19.90;99.90;;;;;;5061408;28;20222;-61
2022/07/21 07:09:56;;;;;;;9.37;5.80;;;19.90;99.90;;;;;;5066078;28;20191;-60
2022/07/21 07:12:23;;;;;;;13.43;5.80;;;19.80;99.90;;;;;;5062779;28;20208;-59
2022/07/21 07:14:50;;;;;;;10.53;5.47;;;19.70;99.90;;;;;;5064363;28;20199;-61
2022/07/21 07:17:19;;;;;;;14.50;5.50;;;19.70;99.90;;;;;;5063540;28;20214;-59
2022/07/21 07:19:46;;;;;;;8.57;5.83;;;19.70;99.90;;;;;;5046781;28;20237;-59
2022/07/21 07:22:15;;;;;;;10.13;5.70;;;19.70;99.90;;;;;;5064754;28;20205;-59
2022/07/21 07:24:42;;;;;;;7.07;6.03;;;19.80;99.90;;;;;;5063274;28;20218;-60
2022/07/21 07:27:09;;;;;;;11.03;6.60;;;19.80;99.90;;;;;;5065180;28;20214;-59
2022/07/21 07:29:36;;;;;;;8.50;6.70;;;19.80;99.90;;;;;;5062356;28;20575;-59
2022/07/21 07:32:03;;;;;;;11.33;6.27;;;19.80;99.90;;;;;;5065709;28;20655;-60
2022/07/21 07:34:30;;;;;;;13.53;7.53;;;19.80;99.90;;;;;;5061254;28;20198;-59
2022/07/21 07:36:57;;;;;;;12.83;6.40;;;19.80;99.90;;;;;;5048358;28;20219;-59
2022/07/21 07:39:25;;;;;;;14.73;7.20;;;19.80;99.90;;;;;;5062032;28;20581;-59
2022/07/21 07:41:51;;;;;;;14.37;7.30;;;19.80;99.90;;;;;;5060680;28;20203;-59
2022/07/21 07:44:18;;;;;;;13.03;7.33;;;19.80;99.90;;;;;;5061607;28;20209;-59
2022/07/21 07:46:45;;;;;;;12.70;6.67;;;19.80;99.90;;;;;;5063505;28;20210;-59
2022/07/21 07:49:13;;;;;;;14.47;8.37;;;19.90;99.90;;;;;;5063982;28;20222;-59
2022/07/21 07:51:40;;;;;;;13.17;8.07;;;19.90;99.90;;;;;;5045310;28;20233;-59
2022/07/21 07:54:07;;;;;;;17.97;7.73;;;19.80;99.90;;;;;;5064609;28;20206;-59
2022/07/21 07:56:35;;;;;;;18.63;8.80;;;19.80;99.90;;;;;;5061730;28;20903;-59
2022/07/21 07:59:02;;;;;;;11.63;8.40;;;19.80;99.90;;;;;;5064699;28;20222;-59
2022/07/21 08:01:29;;;;;;;14.13;8.80;;;19.80;99.90;;;;;;5060508;28;20190;-59
2022/07/21 08:03:56;;;;;;;13.70;8.50;;;19.80;99.90;;;;;;5064594;28;20203;-59
2022/07/21 08:06:23;;;;;;;13.57;8.37;;;19.80;99.90;;;;;;5047584;28;20223;-59
2022/07/21 08:08:50;;;;;;;12.47;9.07;;;19.80;99.90;;;;;;5062851;28;20209;-59
2022/07/21 08:11:17;;;;;;;15.97;9.17;;;19.90;99.90;;;;;;5056650;28;20198;-59
2022/07/21 08:13:45;;;;;;;14.80;9.30;;;19.90;99.90;;;;;;5056363;28;20930;-59
2022/07/21 08:16:15;;;;;;;14.87;9.50;;;19.90;99.90;;;;;;5056520;28;20221;-59
2022/07/21 08:18:42;;;;;;;16.67;10.87;;;20.00;99.90;;;;;;5059992;28;20199;-59
2022/07/21 08:21:09;;;;;;;19.70;10.37;;;20.00;99.90;;;;;;5057589;28;20244;-59
2022/07/21 08:23:36;;;;;;;14.60;10.33;;;20.00;99.90;;;;;;5036450;28;20206;-59
2022/07/21 08:26:04;;;;;;;22.23;11.83;;;20.10;99.90;;;;;;5064458;28;20575;-60
2022/07/21 08:28:31;;;;;;;16.67;11.33;;;20.20;99.90;;;;;;5060438;28;20266;-60
2022/07/21 08:30:59;;;;;;;16.77;11.70;;;20.30;99.90;;;;;;5064511;28;20191;-59
2022/07/21 08:33:26;;;;;;;19.17;12.27;;;20.40;99.90;;;;;;5060206;28;20203;-59
2022/07/21 08:35:54;;;;;;;19.57;10.57;;;20.40;99.90;;;;;;5064314;28;20222;-60
2022/07/21 08:38:21;;;;;;;16.57;11.73;;;20.50;99.90;;;;;;5044263;28;20207;-60
2022/07/21 08:40:48;;;;;;;18.40;12.53;;;20.70;99.90;;;;;;5063324;28;20679;-60
2022/07/21 08:43:15;;;;;;;21.63;13.37;;;20.80;99.90;;;;;;5062502;28;20199;-60
2022/07/21 08:45:43;;;;;;;16.07;12.30;;;20.80;99.90;;;;;;5062096;28;20222;-60
2022/07/21 08:48:13;;;;;;;13.27;10.67;;;20.90;99.90;;;;;;5063561;28;20198;-60
2022/07/21 08:50:41;;;;;;;18.07;13.20;;;21.10;99.90;;;;;;5062091;28;20198;-59
2022/07/21 08:53:08;;;;;;;16.87;12.90;;;21.20;99.90;;;;;;5061361;28;20191;-59
2022/07/21 08:55:38;;;;;;;19.70;13.47;;;21.20;99.90;;;;;;5046969;28;20222;-60
2022/07/21 08:58:04;;;;;;;15.67;13.60;;;21.20;99.90;;;;;;5063876;28;20286;-59
2022/07/21 09:00:34;;;;;;;20.57;13.93;;;21.20;99.90;;;;;;5059721;28;20226;-59
2022/07/21 09:03:15;;;;;;;19.83;14.60;;;21.20;99.90;;;;;;5063675;28;20210;-59
2022/07/21 09:06:00;;;;;;;19.03;13.90;;;21.10;99.90;;;;;;5061406;28;20244;-60
2022/07/21 09:08:30;;;;;;;20.13;14.37;;;21.10;99.90;;;;;;5042686;28;20207;-59
2022/07/21 09:11:26;;;;;;;20.53;16.13;;;21.10;99.90;;;;;;5062615;28;20241;-59
2022/07/21 09:14:06;;;;;;;20.67;15.90;;;21.10;99.90;;;;;;5057889;28;20202;-59
2022/07/21 09:16:35;;;;;;;24.50;17.07;;;21.00;99.90;;;;;;5059675;28;20214;-60
2022/07/21 09:19:04;;;;;;;22.77;15.80;;;21.00;99.90;;;;;;5063633;28;20233;-59
2022/07/21 09:21:33;;;;;;;22.67;17.10;;;20.90;99.90;;;;;;5059374;28;20198;-59
2022/07/21 09:24:18;;;;;;;23.30;17.97;;;20.90;99.90;;;;;;5063125;28;20667;-59
2022/07/21 09:27:02;;;;;;;27.10;17.93;;;21.10;99.90;;;;;;5057024;28;20706;-59
2022/07/21 09:29:36;;;;;;;23.43;17.17;;;21.20;99.90;;;;;;5053738;28;20213;-59
2022/07/21 09:32:20;;;;;;;22.73;18.23;;;21.30;99.90;;;;;;5062435;28;20272;-60
2022/07/21 09:34:51;;;;;;;21.17;17.10;;;21.50;99.90;;;;;;5062089;28;20279;-59
2022/07/21 09:37:20;;;;;;;20.40;18.20;;;21.70;99.90;;;;;;5059518;28;20579;-59
2022/07/21 09:39:49;;;;;;;22.90;18.67;;;21.80;99.90;;;;;;5045110;28;20219;-59
2022/07/21 09:42:23;;;;;;;23.20;17.20;;;21.90;99.90;;;;;;5061214;28;20194;-60
2022/07/21 09:44:51;;;;;;;22.97;17.03;;;21.90;99.90;;;;;;5062435;28;20199;-60
2022/07/21 09:47:20;;;;;;;18.03;16.13;;;22.00;99.90;;;;;;5060636;28;20222;-59
2022/07/21 09:49:49;;;;;;;19.73;17.03;;;22.00;99.90;;;;;;5062500;28;20199;-59
2022/07/21 09:52:22;;;;;;;18.50;15.63;;;22.00;99.90;;;;;;5061476;28;20202;-62
2022/07/21 09:54:49;;;;;;;16.73;13.93;;;22.00;99.90;;;;;;5055671;28;20198;-59
2022/07/21 09:57:17;;;;;;;17.43;14.17;;;21.90;99.90;;;;;;5044486;28;20234;-59
2022/07/21 09:59:45;;;;;;;17.33;14.37;;;21.90;99.90;;;;;;5061656;28;20849;-59
2022/07/21 10:02:18;;;;;;;19.27;15.63;;;21.80;99.90;;;;;;5057800;28;20198;-60
2022/07/21 10:04:51;;;;;;;18.33;14.17;;;21.90;99.90;;;;;;5059290;28;20234;-60
2022/07/21 10:07:20;;;;;;;24.57;15.27;;;22.00;99.90;;;;;;5060619;28;20663;-60
2022/07/21 10:09:47;;;;;;;18.20;15.70;;;22.10;99.90;;;;;;5062128;28;20214;-59
2022/07/21 10:12:16;;;;;;;18.47;15.07;;;22.30;99.90;;;;;;5044001;28;20248;-60
2022/07/21 10:14:42;;;;;;;16.93;14.40;;;22.40;99.90;;;;;;5060495;28;20247;-59
2022/07/21 10:17:09;;;;;;;17.10;15.02;;;22.50;99.90;;;;;;5062219;28;20215;-60
2022/07/21 10:19:45;;;;;;;17.47;13.57;;;22.50;99.90;;;;;;5058970;28;20935;-59
2022/07/21 10:22:23;;;;;;;14.30;12.90;;;22.60;99.90;;;;;;5063295;28;20194;-60
2022/07/21 10:24:52;;;;;;;18.83;12.80;;;22.60;99.90;;;;;;5066367;28;20202;-60
2022/07/21 10:27:18;;;;;;;15.43;12.83;;;22.70;99.90;;;;;;5053748;28;20560;-60
2022/07/21 10:30:00;;;;;;;15.60;14.05;;;22.90;99.90;;;;;;5060192;28;20206;-60
2022/07/21 10:32:32;;;;;;;15.38;13.60;;;23.00;99.90;;;;;;5062826;28;20194;-60
2022/07/21 10:35:01;;;;;;;17.05;14.45;;;23.00;99.90;;;;;;5066287;28;20206;-60
2022/07/21 10:37:47;;;;;;;19.33;14.65;;;22.90;99.90;;;;;;5061624;28;20213;-60
2022/07/21 10:40:39;;;;;;;17.75;14.40;;;23.00;99.90;;;;;;5064717;28;20625;-60
2022/07/21 10:43:39;;;;;;;17.70;14.35;;;23.00;99.90;;;;;;5047087;28;20215;-60
2022/07/21 10:46:35;;;;;;;14.93;13.38;;;23.00;99.90;;;;;;5062752;28;20225;-60
2022/07/21 10:49:05;;;;;;;17.73;14.45;;;23.00;99.90;;;;;;5066506;28;20194;-60
2022/07/21 10:51:36;;;;;;;13.85;12.60;;;23.10;99.90;;;;;;5056882;28;20213;-60
2022/07/21 10:54:23;;;;;;;15.98;13.32;;;23.10;99.90;;;;;;5066325;28;20213;-60
2022/07/21 10:57:30;;;;;;;14.27;12.88;;;23.30;99.90;;;;;;5058728;28;20404;-60
2022/07/21 11:00:21;;;;;;;13.20;11.85;;;23.30;99.90;;;;;;5065152;28;20214;-60
2022/07/21 11:02:49;;;;;;;13.52;12.20;;;23.50;99.90;;;;;;5063897;28;20199;-60
2022/07/21 11:05:16;;;;;;;13.73;11.88;;;23.60;99.90;;;;;;5063927;28;20199;-60
2022/07/21 11:08:09;;;;;;;14.27;12.88;;;23.70;99.90;;;;;;5064896;28;20375;-60
2022/07/21 11:10:40;;;;;;;13.65;12.35;;;23.90;99.90;;;;;;5062839;28;20221;-60
2022/07/21 11:13:07;;;;;;;10.63;9.63;;;23.90;99.90;;;;;;5048904;28;20213;-60
2022/07/21 11:15:44;;;;;;;9.18;8.32;;;23.80;99.90;;;;;;5061527;28;20222;-60
2022/07/21 11:18:16;;;;;;;10.43;9.40;;;23.90;99.90;;;;;;5065014;28;20267;-60
2022/07/21 11:20:59;;;;;;;9.95;8.93;;;23.80;99.90;;;;;;5064597;28;20233;-60
2022/07/21 11:23:36;;;;;;;10.00;8.82;;;23.70;99.90;;;;;;5061497;28;20218;-60
2022/07/21 11:26:05;;;;;;;11.00;10.00;;;23.80;99.90;;;;;;5059304;28;20260;-60
2022/07/21 11:28:31;;;;;;;9.63;8.63;;;23.80;99.90;;;;;;5039656;28;20194;-60
2022/07/21 11:31:07;;;;;;;12.05;9.57;;;23.80;99.90;;;;;;5065249;28;20234;-60
2022/07/21 11:33:36;;;;;;;11.20;9.77;;;23.80;99.90;;;;;;5055605;28;20196;-60
2022/07/21 11:36:03;;;;;;;9.85;8.90;;;23.80;99.90;;;;;;5065619;28;20222;-60
2022/07/21 11:38:31;;;;;;;10.48;9.50;;;23.90;99.90;;;;;;5061509;28;20325;-60
2022/07/21 11:43:51;;;;;;;9.30;8.38;;;23.80;99.90;;;;;;5090875;27;20587;-59
2022/07/21 11:46:18;;;;;;;9.82;8.82;;;23.50;99.90;;;;;;5105044;27;20210;-59
2022/07/21 11:48:45;;;;;;;9.07;8.27;;;23.50;99.90;;;;;;5100111;28;20189;-60
2022/07/21 11:51:13;;;;;;;8.38;7.55;;;23.50;99.90;;;;;;5100301;28;20689;-59
2022/07/21 11:53:45;;;;;;;8.02;7.38;;;23.40;99.90;;;;;;5098419;28;20193;-59
2022/07/21 11:56:16;;;;;;;6.82;6.22;;;23.60;99.90;;;;;;5100026;28;20248;-60
2022/07/21 11:58:44;;;;;;;8.18;7.43;;;23.90;99.90;;;;;;5100406;28;20209;-60
2022/07/21 12:01:12;;;;;;;6.00;5.50;;;24.10;99.90;;;;;;5093282;27;20200;-60
2022/07/21 12:03:49;;;;;;;5.32;4.95;;;24.30;99.90;;;;;;5107121;27;20209;-60
2022/07/21 12:06:18;;;;;;;3.95;3.65;;;24.40;99.90;;;;;;5104734;28;20221;-60
2022/07/21 12:08:46;;;;;;;4.95;4.43;;;24.60;99.90;;;;;;5103959;28;20212;-60
2022/07/21 12:11:13;;;;;;;4.30;3.85;;;24.80;99.90;;;;;;5099881;28;20206;-60
2022/07/21 12:13:54;;;;;;;4.00;3.70;;;25.00;99.90;;;;;;5098028;28;20206;-60
2022/07/21 12:16:22;;;;;;;6.32;4.22;;;25.10;99.90;;;;;;5093025;28;20220;-59
2022/07/21 12:18:50;;;;;;;4.20;3.90;;;25.20;99.90;;;;;;5104487;28;20229;-60
2022/07/21 12:21:17;;;;;;;5.60;5.20;;;25.20;99.90;;;;;;5098820;28;20189;-60
2022/07/21 12:23:44;;;;;;;5.65;4.07;;;25.00;99.90;;;;;;5098598;28;20220;-60
2022/07/21 12:26:22;;;;;;;4.03;3.65;;;25.10;99.90;;;;;;5099844;28;20217;-60
2022/07/21 12:28:53;;;;;;;3.67;3.47;;;25.10;99.90;;;;;;5100213;28;20197;-60
2022/07/21 12:31:23;;;;;;;3.50;3.30;;;25.20;99.90;;;;;;5086936;28;20749;-60
2022/07/21 12:33:51;;;;;;;3.88;3.58;;;25.30;99.90;;;;;;5109000;27;20211;-60
2022/07/21 12:36:20;;;;;;;3.53;3.22;;;25.60;99.90;;;;;;5106735;27;20764;-59
2022/07/21 12:38:50;;;;;;;3.50;3.22;;;25.80;99.90;;;;;;5099683;28;20849;-60
2022/07/21 12:41:21;;;;;;;3.58;3.33;;;25.80;99.90;;;;;;5098352;28;20205;-60
2022/07/21 12:43:55;;;;;;;3.38;3.15;;;25.90;99.90;;;;;;5078703;28;20267;-60
2022/07/21 12:46:29;;;;;;;3.58;3.38;;;26.00;99.90;;;;;;5076887;28;20951;-60
2022/07/21 12:49:04;;;;;;;4.55;4.25;;;26.00;99.90;;;;;;5073149;28;20235;-60
2022/07/21 12:51:32;;;;;;;3.92;3.58;;;26.30;99.90;;;;;;5076771;28;20295;-60